createdAt,value
2022-09-24T00:02:22.983Z,10.80
2022-09-24T00:06:26.198Z,10.73
2022-09-24T00:10:29.108Z,10.68
2022-09-24T00:14:33.532Z,10.62
2022-09-24T00:18:37.007Z,10.57
2022-09-24T00:22:39.862Z,10.52
2022-09-24T00:26:51.838Z,10.47
2022-09-24T00:30:58.408Z,10.45
2022-09-24T00:35:01.380Z,10.42
2022-09-24T00:39:05.409Z,10.39
2022-09-24T00:43:31.009Z,10.37
2022-09-24T00:47:38.832Z,10.38
2022-09-24T00:51:43.853Z,10.33
2022-09-24T00:55:51.853Z,10.27
2022-09-24T00:59:55.425Z,10.22
2022-09-24T01:04:01.633Z,10.19
2022-09-24T01:08:05.127Z,10.17
2022-09-24T01:12:15.612Z,10.18
2022-09-24T01:16:27.906Z,10.19
2022-09-24T01:20:58.615Z,10.17
2022-09-24T01:25:04.800Z,10.18
2022-09-24T01:29:31.373Z,10.16
2022-09-24T01:33:37.329Z,10.10
2022-09-24T01:37:44.550Z,10.03
2022-09-24T01:41:50.107Z,9.97
2022-09-24T01:45:56.163Z,9.93
2022-09-24T01:49:59.267Z,9.89
2022-09-24T01:54:05.379Z,9.87
2022-09-24T01:58:11.796Z,9.86
2022-09-24T02:02:23.218Z,9.83
2022-09-24T02:06:32.061Z,9.83
2022-09-24T02:10:41.365Z,9.80
2022-09-24T02:14:49.826Z,9.74
2022-09-24T02:18:58.046Z,9.69
2022-09-24T02:23:01.632Z,9.64
2022-09-24T02:27:04.800Z,9.60
2022-09-24T02:31:13.133Z,9.56
2022-09-24T02:35:18.350Z,9.55
2022-09-24T02:39:21.968Z,9.52
2022-09-24T02:43:26.024Z,9.50
2022-09-24T02:47:29.519Z,9.46
2022-09-24T02:51:33.819Z,9.45
2022-09-24T02:55:36.917Z,9.42
2022-09-24T02:59:40.192Z,9.40
2022-09-24T03:03:43.609Z,9.41
2022-09-24T03:07:48.075Z,9.40
2022-09-24T03:11:51.234Z,9.40
2022-09-24T03:15:54.584Z,9.40
2022-09-24T03:19:57.775Z,9.39
2022-09-24T03:24:02.424Z,9.39
2022-09-24T03:28:05.523Z,9.36
2022-09-24T03:32:08.593Z,9.34
2022-09-24T03:36:13.839Z,9.31
2022-09-24T03:40:18.470Z,9.30
2022-09-24T03:44:21.413Z,9.29
2022-09-24T03:48:25.715Z,9.28
2022-09-24T03:52:28.994Z,9.26
2022-09-24T03:56:33.449Z,9.23
2022-09-24T04:00:40.339Z,9.21
2022-09-24T04:04:44.133Z,9.18
2022-09-24T04:08:47.528Z,9.18
2022-09-24T04:12:52.250Z,9.16
2022-09-24T04:16:55.120Z,9.15
2022-09-24T04:21:00.015Z,9.12
2022-09-24T04:25:03.318Z,9.10
2022-09-24T04:29:08.070Z,9.09
2022-09-24T04:33:11.824Z,9.06
2022-09-24T04:37:14.886Z,9.07
2022-09-24T04:41:18.448Z,9.04
2022-09-24T04:45:24.930Z,9.05
2022-09-24T04:49:29.642Z,9.03
2022-09-24T04:53:32.823Z,9.01
2022-09-24T04:57:36.355Z,9.00
2022-09-24T05:01:41.069Z,8.98
2022-09-24T05:05:47.201Z,8.99
2022-09-24T05:09:50.367Z,8.99
2022-09-24T05:13:53.606Z,9.00
2022-09-24T05:17:58.037Z,8.99
2022-09-24T05:22:00.955Z,8.99
2022-09-24T05:26:21.298Z,9.01
2022-09-24T05:30:26.174Z,9.07
2022-09-24T05:34:31.149Z,9.12
2022-09-24T05:38:34.055Z,9.18
2022-09-24T05:42:37.425Z,9.23
2022-09-24T05:46:40.681Z,9.32
2022-09-24T05:50:45.284Z,9.40
2022-09-24T05:54:48.111Z,9.51
2022-09-24T05:58:51.561Z,9.62
2022-09-24T06:02:54.443Z,9.70
2022-09-24T06:06:58.810Z,9.77
2022-09-24T06:11:05.461Z,9.84
2022-09-24T06:15:09.479Z,9.91
2022-09-24T06:19:12.756Z,9.97
2022-09-24T06:23:17.209Z,10.04
2022-09-24T06:27:20.293Z,10.12
2022-09-24T06:31:23.412Z,10.18
2022-09-24T06:35:26.293Z,10.25
2022-09-24T06:39:30.537Z,10.29
2022-09-24T06:43:34.567Z,10.34
2022-09-24T06:47:37.465Z,10.44
2022-09-24T06:51:40.905Z,10.55
2022-09-24T06:55:46.943Z,10.67
2022-09-24T06:59:51.384Z,10.80
2022-09-24T07:03:54.451Z,10.86
2022-09-24T07:07:57.517Z,10.92
2022-09-24T07:12:05.359Z,11.01
2022-09-24T07:16:08.438Z,11.13
2022-09-24T07:20:11.577Z,11.27
2022-09-24T07:24:14.468Z,11.47
2022-09-24T07:28:19.659Z,11.59
2022-09-24T07:32:27.444Z,11.69
2022-09-24T07:36:32.733Z,11.76
2022-09-24T07:40:36.121Z,11.89
2022-09-24T07:44:40.462Z,12.04
2022-09-24T07:48:43.541Z,12.17
2022-09-24T07:52:51.694Z,12.31
2022-09-24T07:56:54.784Z,12.39
2022-09-24T08:01:00.577Z,12.52
2022-09-24T08:05:03.982Z,12.63
2022-09-24T08:09:08.109Z,12.72
2022-09-24T08:13:11.180Z,12.82
2022-09-24T08:17:15.676Z,12.90
2022-09-24T08:21:18.555Z,13.02
2022-09-24T08:25:21.587Z,13.14
2022-09-24T08:29:24.741Z,13.21
2022-09-24T08:33:29.688Z,13.23
2022-09-24T08:37:32.773Z,13.36
2022-09-24T08:41:57.145Z,13.46
2022-09-24T08:46:21.330Z,13.61
2022-09-24T08:50:28.402Z,13.72
2022-09-24T08:54:35.218Z,13.85
2022-09-24T08:58:45.631Z,13.94
2022-09-24T09:02:56.570Z,13.98
2022-09-24T09:07:14.388Z,14.11
2022-09-24T09:11:21.454Z,14.13
2022-09-24T09:15:28.270Z,14.20
2022-09-24T09:19:35.501Z,14.30
2022-09-24T09:23:47.483Z,14.34
2022-09-24T09:27:59.675Z,14.50
2022-09-24T09:32:11.022Z,14.72
2022-09-24T09:36:37.129Z,14.90
2022-09-24T09:40:46.123Z,14.94
2022-09-24T09:44:49.419Z,14.99
2022-09-24T09:48:55.904Z,15.07
2022-09-24T09:52:58.820Z,15.21
2022-09-24T09:57:04.374Z,15.40
2022-09-24T10:01:10.388Z,15.49
2022-09-24T10:05:26.987Z,15.53
2022-09-24T10:09:30.508Z,15.65
2022-09-24T10:13:35.241Z,15.70
2022-09-24T10:17:40.084Z,15.72
2022-09-24T10:21:43.333Z,15.84
2022-09-24T10:25:52.174Z,15.96
2022-09-24T10:30:15.208Z,16.01
2022-09-24T10:34:26.650Z,15.98
2022-09-24T10:38:31.344Z,15.96
2022-09-24T10:42:34.279Z,16.07
2022-09-24T10:47:00.719Z,16.21
2022-09-24T10:51:13.701Z,16.28
2022-09-24T10:55:27.231Z,16.31
2022-09-24T10:59:51.270Z,16.40
2022-09-24T11:04:23.346Z,16.47
2022-09-24T11:08:35.741Z,16.52
2022-09-24T11:12:50.120Z,16.60
2022-09-24T11:17:08.483Z,16.63
2022-09-24T11:21:28.577Z,16.68
2022-09-24T11:25:40.755Z,16.79
2022-09-24T11:29:59.713Z,16.86
2022-09-24T11:34:29.099Z,16.95
2022-09-24T11:38:45.462Z,17.06
2022-09-24T11:43:00.197Z,17.21
2022-09-24T11:47:17.719Z,17.27
2022-09-24T11:51:33.070Z,17.27
2022-09-24T11:55:44.263Z,17.31
2022-09-24T11:59:54.912Z,17.42
2022-09-24T12:04:04.042Z,17.50
2022-09-24T12:08:14.694Z,17.61
2022-09-24T12:12:24.188Z,17.70
2022-09-24T12:16:30.083Z,17.84
2022-09-24T12:20:37.834Z,17.92
2022-09-24T12:24:46.274Z,17.96
2022-09-24T12:29:14.110Z,18.13
2022-09-24T12:33:21.110Z,18.24
2022-09-24T12:37:32.581Z,18.36
2022-09-24T12:41:38.202Z,18.41
2022-09-24T12:45:42.825Z,18.46
2022-09-24T12:49:51.660Z,18.52
2022-09-24T12:54:01.162Z,18.61
2022-09-24T12:58:06.983Z,18.70
2022-09-24T13:02:19.012Z,18.77
2022-09-24T13:06:32.292Z,18.76
2022-09-24T13:10:36.629Z,18.74
2022-09-24T13:14:43.343Z,18.72
2022-09-24T13:18:55.312Z,18.71
2022-09-24T13:23:00.093Z,18.76
2022-09-24T13:27:21.994Z,18.79
2022-09-24T13:31:31.123Z,18.81
2022-09-24T13:35:44.398Z,18.80
2022-09-24T13:39:52.559Z,18.75
2022-09-24T13:44:01.399Z,18.74
2022-09-24T13:48:06.771Z,18.72
2022-09-24T13:52:17.966Z,18.71
2022-09-24T13:56:21.484Z,18.71
2022-09-24T14:00:27.651Z,18.77
2022-09-24T14:04:31.673Z,18.77
2022-09-24T14:08:38.618Z,18.76
2022-09-24T14:12:42.010Z,18.74
2022-09-24T14:16:45.011Z,18.76
2022-09-24T14:20:54.014Z,18.75
2022-09-24T14:25:03.424Z,18.74
2022-09-24T14:29:10.062Z,18.74
2022-09-24T14:33:18.012Z,18.70
2022-09-24T14:37:24.290Z,18.69
2022-09-24T14:41:32.094Z,18.71
2022-09-24T14:45:38.368Z,18.73
2022-09-24T14:49:46.242Z,18.75
2022-09-24T14:53:58.827Z,18.75
2022-09-24T14:58:03.147Z,18.72
2022-09-24T15:02:17.318Z,18.72
2022-09-24T15:06:23.775Z,18.70
2022-09-24T15:10:26.919Z,18.65
2022-09-24T15:14:34.582Z,18.65
2022-09-24T15:18:37.756Z,18.65
2022-09-24T15:22:40.967Z,18.62
2022-09-24T15:26:45.767Z,18.60
2022-09-24T15:30:50.151Z,18.57
2022-09-24T15:34:53.962Z,18.55
2022-09-24T15:39:03.370Z,18.54
2022-09-24T15:43:13.843Z,18.51
2022-09-24T15:47:19.230Z,18.46
2022-09-24T15:51:23.431Z,18.46
2022-09-24T15:55:26.561Z,18.44
2022-09-24T15:59:29.765Z,18.43
2022-09-24T16:03:34.332Z,18.37
2022-09-24T16:07:37.523Z,18.31
2022-09-24T16:11:40.713Z,18.29
2022-09-24T16:15:44.444Z,18.24
2022-09-24T16:19:48.837Z,18.20
2022-09-24T16:23:55.396Z,18.14
2022-09-24T16:27:58.919Z,18.08
2022-09-24T16:32:02.252Z,18.03
2022-09-24T16:36:08.019Z,17.96
2022-09-24T16:40:12.140Z,17.89
2022-09-24T16:44:15.657Z,17.84
2022-09-24T16:48:19.253Z,17.79
2022-09-24T16:52:23.839Z,17.75
2022-09-24T16:56:26.933Z,17.67
2022-09-24T17:00:30.063Z,17.64
2022-09-24T17:04:34.364Z,17.59
2022-09-24T17:08:56.673Z,17.56
2022-09-24T17:13:01.095Z,17.52
2022-09-24T17:17:04.124Z,17.52
2022-09-24T17:21:09.737Z,17.51
2022-09-24T17:25:14.119Z,17.47
2022-09-24T17:29:20.535Z,17.44
2022-09-24T17:33:42.345Z,17.41
2022-09-24T17:37:46.833Z,17.35
2022-09-24T17:41:51.231Z,17.34
2022-09-24T17:45:58.252Z,17.27
2022-09-24T17:50:01.591Z,17.21
2022-09-24T17:54:08.128Z,17.14
2022-09-24T17:58:12.479Z,17.08
2022-09-24T18:02:15.559Z,17.07
2022-09-24T18:06:18.574Z,17.02
2022-09-24T18:10:21.603Z,16.97
2022-09-24T18:14:26.172Z,16.91
2022-09-24T18:18:29.178Z,16.86
2022-09-24T18:22:32.376Z,16.84
2022-09-24T18:26:37.523Z,16.81
2022-09-24T18:30:41.905Z,16.79
2022-09-24T18:34:45.271Z,16.74
2022-09-24T18:38:49.473Z,16.70
2022-09-24T18:42:52.725Z,16.67
2022-09-24T18:46:57.267Z,16.65
2022-09-24T18:51:00.943Z,16.59
2022-09-24T18:55:04.114Z,16.56
2022-09-24T18:59:09.972Z,16.53
2022-09-24T19:03:14.557Z,16.49
2022-09-24T19:07:17.578Z,16.46
2022-09-24T19:11:21.506Z,16.42
2022-09-24T19:15:25.129Z,16.37
2022-09-24T19:19:29.729Z,16.30
2022-09-24T19:23:32.763Z,16.27
2022-09-24T19:27:35.724Z,16.24
2022-09-24T19:31:40.850Z,16.18
2022-09-24T19:35:54.344Z,16.13
2022-09-24T19:39:57.623Z,16.08
2022-09-24T19:44:11.175Z,16.03
2022-09-24T19:48:14.405Z,16.00
2022-09-24T19:52:19.125Z,15.98
2022-09-24T19:56:25.380Z,15.96
2022-09-24T20:00:28.779Z,15.93
2022-09-24T20:04:33.858Z,15.88
2022-09-24T20:08:38.747Z,15.81
2022-09-24T20:12:46.563Z,15.77
2022-09-24T20:16:49.679Z,15.70
2022-09-24T20:20:54.375Z,15.63
2022-09-24T20:24:59.093Z,15.57
2022-09-24T20:29:03.289Z,15.52
2022-09-24T20:33:10.213Z,15.47
2022-09-24T20:37:14.485Z,15.40
2022-09-24T20:41:20.622Z,15.33
2022-09-24T20:45:24.107Z,15.27
2022-09-24T20:49:28.138Z,15.23
2022-09-24T20:53:31.383Z,15.18
2022-09-24T20:57:35.968Z,15.11
2022-09-24T21:01:39.640Z,15.04
2022-09-24T21:05:43.502Z,14.97
2022-09-24T21:09:46.521Z,14.94
2022-09-24T21:14:17.836Z,14.92
2022-09-24T21:18:23.230Z,14.90
2022-09-24T21:22:27.212Z,14.85
2022-09-24T21:26:32.127Z,14.80
2022-09-24T21:30:36.743Z,14.76
2022-09-24T21:34:40.173Z,14.71
2022-09-24T21:38:43.351Z,14.68
2022-09-24T21:42:47.149Z,14.66
2022-09-24T21:46:52.608Z,14.64
2022-09-24T21:51:02.558Z,14.64
2022-09-24T21:55:06.432Z,14.64
2022-09-24T21:59:23.883Z,14.62
2022-09-24T22:03:28.535Z,14.59
2022-09-24T22:07:31.607Z,14.56
2022-09-24T22:11:35.086Z,14.52
2022-09-24T22:15:38.405Z,14.49
2022-09-24T22:19:42.939Z,14.48
2022-09-24T22:23:45.914Z,14.47
2022-09-24T22:27:49.536Z,14.45
2022-09-24T22:31:52.596Z,14.44
2022-09-24T22:35:58.374Z,14.41
2022-09-24T22:40:02.264Z,14.40
2022-09-24T22:44:05.435Z,14.37
2022-09-24T22:48:08.664Z,14.34
2022-09-24T22:52:13.077Z,14.32
2022-09-24T22:56:18.196Z,14.30
2022-09-24T23:00:21.458Z,14.28
2022-09-24T23:04:24.503Z,14.28
2022-09-24T23:08:33.342Z,14.28
2022-09-24T23:12:36.936Z,14.26
2022-09-24T23:16:40.067Z,14.24
2022-09-24T23:20:43.873Z,14.23
2022-09-24T23:24:50.467Z,14.22
2022-09-24T23:28:55.328Z,14.23
2022-09-24T23:32:59.022Z,14.20
2022-09-24T23:37:02.003Z,14.17
2022-09-24T23:41:07.406Z,14.15
2022-09-24T23:45:11.284Z,14.12
2022-09-24T23:49:14.764Z,14.10
2022-09-24T23:53:18.845Z,14.09
2022-09-24T23:57:23.188Z,14.08
